Cirencester, United Kingdom
Current Conditions -  °F | °C
As of 4:58 PM on Saturday 25 Oct 2014 (Local Time) from EGVA Reporting Station
Overcast Overcast  
Wind Chill: 13°   Ceiling: 3700
Heat Index: 13°   Visibility: 6mi
Dew Point:   Wind: 12mph
Humidity: 73%   Direction: 240°WSW
Pressure: 30.05"   Gusts: NA
Location:  51.72°N, 1.97°W
Report Text: EGVA 251558Z AUTO 24010KT 9999 OVC037 13/09 A3005 RMK AO2 SLP180 P1406 T01330086
Loading
Personal Weather Stations






























Interactive Weather Map
Tropical Storm Tracking
New forecast layout! Learn more

10-Day Weather Forecast

Advertisements
Track Severe Weather on mobile